This is the latest recevied weather packets stored in our database for station/object XE2B-20. If no packets are shown the sender has not sent any weather packets the latest 10 day(s).
| Time | Temp. | Humidity | Pressure | Rain* | Wind** | Luminosity | Snow |
|---|---|---|---|---|---|---|---|
| 1778036347 | 25° C | 14% | 804.5 hPa | - | - | - | - |
| 1778034849 | 26.11° C | 14% | 804.3 hPa | - | - | - | - |
| 1778033350 | 26.67° C | 14% | 803.9 hPa | - | - | - | - |
| 1778031858 | 26.67° C | 14% | 803.6 hPa | - | - | - | - |
| 1778030356 | 27.78° C | 14% | 803.2 hPa | - | - | - | - |
| 1778028857 | 29.44° C | 13% | 803.2 hPa | - | - | - | - |
| 1778027358 | 31.11° C | 12% | 803 hPa | - | - | - | - |
| 1778025860 | 31.67° C | 13% | 803 hPa | - | - | - | - |
| 1778024367 | 32.78° C | 12% | 803 hPa | - | - | - | - |
| 1778022862 | 33.89° C | 12% | 802.8 hPa | - | - | - | - |
| 1778021364 | 33.89° C | 12% | 802.9 hPa | - | - | - | - |
| 1778019872 | 35° C | 11% | 803.3 hPa | - | - | - | - |
| 1778018368 | 35° C | 12% | 803.5 hPa | - | - | - | - |
| 1778016870 | 34.44° C | 12% | 803.7 hPa | - | - | - | - |
| 1778015372 | 35° C | 12% | 804.1 hPa | - | - | - | - |
| 1778013873 | 35° C | 12% | 804.4 hPa | - | - | - | - |
| 1778012628 | 34.44° C | 12% | 804.8 hPa | - | - | - | - |
| 1778011129 | 34.44° C | 12% | 805 hPa | - | - | - | - |
| 1778009631 | 33.89° C | 13% | 805.5 hPa | - | - | - | - |
| 1778008132 | 34.44° C | 13% | 805.3 hPa | - | - | - | - |
| 1778006631 | 32.78° C | 13% | 805.8 hPa | - | - | - | - |
| 1778005132 | 32.78° C | 14% | 806.2 hPa | - | - | - | - |
| 1778003632 | 32.22° C | 14% | 806.5 hPa | - | - | - | - |
| 1778002133 | 32.22° C | 15% | 806.8 hPa | - | - | - | - |
| 1778000634 | 32.22° C | 15% | 807.1 hPa | - | - | - | - |
* Rain since midnight (hover to see other rain measurements)
** Current wind speed in m/s (hover to see current wind gust speed)